Terminal Aerodrome Forecast
Issued by NWS

Home | Current Version | Previous Version | Text Only | Print | Product List | Glossary On
Versions: 1 2 3 4 5 6 7 8 9 10 11 12 13 14 15 16 17 18 19 20 21 22 23 24 25 26 27 28 29 30 31 32 33 34 35 36 37 38 39 40 41 42 43 44 45 46 47 48 49 50
210
FTUS46 KEKA 240818 AAA
TAFACV
TAF AMD
KACV 240818Z 2408/2506 14015G26KT P6SM -RA OVC050 WS020/17045KT
      TEMPO 2408/2411 15020G32KT 6SM -RA SCT025 OVC040
     FM241100 14015G25KT 6SM -RA BR SCT025 OVC040 WS020/17045KT
      TEMPO 2411/2412 5SM RA BR BKN025 OVC040
     FM241200 16010G20KT 4SM -RA BR BKN020 OVC040
     FM241700 18006KT 6SM -RA BR BKN030 OVC050
     FM242100 20008KT P6SM -RA SCT015 SCT030 OVC050
      TEMPO 2421/2501 6SM -RA BKN015 OVC030=

USA.gov is the U.S. government's official web portal to all federal, state and local government web resources and services.